sensor_id;sensor_type;location;lat;lon;timestamp;temperature;humidity
36132;DHT22;22185;48.738;9.324;2023-04-09T00:01:47;7.70;99.90
36132;DHT22;22185;48.738;9.324;2023-04-09T00:03:48;7.80;99.90
36132;DHT22;22185;48.738;9.324;2023-04-09T00:05:50;7.80;99.90
36132;DHT22;22185;48.738;9.324;2023-04-09T00:07:52;7.70;99.90
36132;DHT22;22185;48.738;9.324;2023-04-09T00:09:54;7.70;99.90
36132;DHT22;22185;48.738;9.324;2023-04-09T00:11:56;7.60;99.90
36132;DHT22;22185;48.738;9.324;2023-04-09T00:13:58;7.60;99.90
36132;DHT22;22185;48.738;9.324;2023-04-09T00:16:00;7.60;99.90
36132;DHT22;22185;48.738;9.324;2023-04-09T00:18:02;7.60;99.90
36132;DHT22;22185;48.738;9.324;2023-04-09T00:20:04;7.70;99.90
36132;DHT22;22185;48.738;9.324;2023-04-09T00:22:06;7.70;99.90
36132;DHT22;22185;48.738;9.324;2023-04-09T00:24:08;7.70;99.90
36132;DHT22;22185;48.738;9.324;2023-04-09T00:26:09;7.60;99.90
36132;DHT22;22185;48.738;9.324;2023-04-09T00:28:11;7.60;99.90
36132;DHT22;22185;48.738;9.324;2023-04-09T00:30:13;7.60;99.90
36132;DHT22;22185;48.738;9.324;2023-04-09T00:32:14;7.70;99.90
36132;DHT22;22185;48.738;9.324;2023-04-09T00:34:16;7.70;99.90
36132;DHT22;22185;48.738;9.324;2023-04-09T00:36:17;7.70;99.90
36132;DHT22;22185;48.738;9.324;2023-04-09T00:38:19;7.70;99.90
36132;DHT22;22185;48.738;9.324;2023-04-09T00:40:21;7.70;99.90
36132;DHT22;22185;48.738;9.324;2023-04-09T00:42:23;7.70;99.90
36132;DHT22;22185;48.738;9.324;2023-04-09T00:44:24;7.70;99.90
36132;DHT22;22185;48.738;9.324;2023-04-09T00:46:26;7.60;99.90
36132;DHT22;22185;48.738;9.324;2023-04-09T00:48:28;7.60;99.90
36132;DHT22;22185;48.738;9.324;2023-04-09T00:50:29;7.70;99.90
36132;DHT22;22185;48.738;9.324;2023-04-09T00:52:31;7.60;99.90
36132;DHT22;22185;48.738;9.324;2023-04-09T00:54:33;7.60;99.90
36132;DHT22;22185;48.738;9.324;2023-04-09T00:56:35;7.70;99.90
36132;DHT22;22185;48.738;9.324;2023-04-09T00:58:38;7.70;99.90
36132;DHT22;22185;48.738;9.324;2023-04-09T01:00:40;7.70;99.90
36132;DHT22;22185;48.738;9.324;2023-04-09T01:02:42;7.60;99.90
36132;DHT22;22185;48.738;9.324;2023-04-09T01:04:44;7.70;99.90
36132;DHT22;22185;48.738;9.324;2023-04-09T01:06:52;7.70;99.90
36132;DHT22;22185;48.738;9.324;2023-04-09T01:08:59;7.70;99.90
36132;DHT22;22185;48.738;9.324;2023-04-09T01:11:13;7.60;99.90
36132;DHT22;22185;48.738;9.324;2023-04-09T01:13:25;7.50;99.90
36132;DHT22;22185;48.738;9.324;2023-04-09T01:15:30;7.50;99.90
36132;DHT22;22185;48.738;9.324;2023-04-09T01:17:40;7.50;99.90
36132;DHT22;22185;48.738;9.324;2023-04-09T01:21:55;7.50;99.90
36132;DHT22;22185;48.738;9.324;2023-04-09T01:23:58;7.50;99.90
36132;DHT22;22185;48.738;9.324;2023-04-09T01:28:27;7.50;99.90
36132;DHT22;22185;48.738;9.324;2023-04-09T01:30:32;7.60;99.90
36132;DHT22;22185;48.738;9.324;2023-04-09T01:32:34;7.50;99.90
36132;DHT22;22185;48.738;9.324;2023-04-09T01:34:37;7.50;99.90
36132;DHT22;22185;48.738;9.324;2023-04-09T01:36:39;7.40;99.90
36132;DHT22;22185;48.738;9.324;2023-04-09T01:38:42;7.40;99.90
36132;DHT22;22185;48.738;9.324;2023-04-09T01:40:45;7.40;99.90
36132;DHT22;22185;48.738;9.324;2023-04-09T01:42:47;7.40;99.90
36132;DHT22;22185;48.738;9.324;2023-04-09T01:44:49;7.40;99.90
36132;DHT22;22185;48.738;9.324;2023-04-09T01:46:52;7.40;99.90
36132;DHT22;22185;48.738;9.324;2023-04-09T01:48:54;7.40;99.90
36132;DHT22;22185;48.738;9.324;2023-04-09T01:50:57;7.40;99.90
36132;DHT22;22185;48.738;9.324;2023-04-09T01:53:00;7.40;99.90
36132;DHT22;22185;48.738;9.324;2023-04-09T01:55:02;7.40;99.90
36132;DHT22;22185;48.738;9.324;2023-04-09T01:57:03;7.40;99.90
36132;DHT22;22185;48.738;9.324;2023-04-09T01:59:05;7.40;99.90
36132;DHT22;22185;48.738;9.324;2023-04-09T02:01:08;7.40;99.90
36132;DHT22;22185;48.738;9.324;2023-04-09T02:05:17;7.40;99.90
36132;DHT22;22185;48.738;9.324;2023-04-09T02:09:21;7.50;99.90
36132;DHT22;22185;48.738;9.324;2023-04-09T02:11:24;7.50;99.90
36132;DHT22;22185;48.738;9.324;2023-04-09T02:13:27;7.50;99.90
36132;DHT22;22185;48.738;9.324;2023-04-09T02:15:30;7.50;99.90
36132;DHT22;22185;48.738;9.324;2023-04-09T02:17:32;7.40;99.90
36132;DHT22;22185;48.738;9.324;2023-04-09T02:19:36;7.40;99.90
36132;DHT22;22185;48.738;9.324;2023-04-09T02:21:39;7.40;99.90
36132;DHT22;22185;48.738;9.324;2023-04-09T02:23:41;7.40;99.90
36132;DHT22;22185;48.738;9.324;2023-04-09T02:25:42;7.30;99.90
36132;DHT22;22185;48.738;9.324;2023-04-09T02:27:44;7.30;99.90
36132;DHT22;22185;48.738;9.324;2023-04-09T02:29:46;7.30;99.90
36132;DHT22;22185;48.738;9.324;2023-04-09T02:31:47;7.30;99.90
36132;DHT22;22185;48.738;9.324;2023-04-09T02:33:50;7.40;99.90
36132;DHT22;22185;48.738;9.324;2023-04-09T02:35:52;7.40;99.90
36132;DHT22;22185;48.738;9.324;2023-04-09T02:37:53;7.40;99.90
36132;DHT22;22185;48.738;9.324;2023-04-09T02:39:56;7.40;99.90
36132;DHT22;22185;48.738;9.324;2023-04-09T02:41:57;7.40;99.90
36132;DHT22;22185;48.738;9.324;2023-04-09T02:43:59;7.40;99.90
36132;DHT22;22185;48.738;9.324;2023-04-09T02:46:01;7.30;99.90
36132;DHT22;22185;48.738;9.324;2023-04-09T02:48:02;7.30;99.90
36132;DHT22;22185;48.738;9.324;2023-04-09T02:50:04;7.30;99.90
36132;DHT22;22185;48.738;9.324;2023-04-09T02:52:08;7.30;99.90
36132;DHT22;22185;48.738;9.324;2023-04-09T02:54:10;7.20;99.90
36132;DHT22;22185;48.738;9.324;2023-04-09T02:56:11;7.20;99.90
36132;DHT22;22185;48.738;9.324;2023-04-09T02:58:13;7.20;99.90
36132;DHT22;22185;48.738;9.324;2023-04-09T03:00:15;7.10;99.90
36132;DHT22;22185;48.738;9.324;2023-04-09T03:02:16;7.10;99.90
36132;DHT22;22185;48.738;9.324;2023-04-09T03:04:18;7.10;99.90
36132;DHT22;22185;48.738;9.324;2023-04-09T03:06:20;7.10;99.90
36132;DHT22;22185;48.738;9.324;2023-04-09T03:08:21;7.10;99.90
36132;DHT22;22185;48.738;9.324;2023-04-09T03:10:23;7.10;99.90
36132;DHT22;22185;48.738;9.324;2023-04-09T03:12:25;7.10;99.90
36132;DHT22;22185;48.738;9.324;2023-04-09T03:14:26;7.20;99.90
36132;DHT22;22185;48.738;9.324;2023-04-09T03:16:28;7.10;99.90
36132;DHT22;22185;48.738;9.324;2023-04-09T03:18:30;7.10;99.90
36132;DHT22;22185;48.738;9.324;2023-04-09T03:20:32;7.10;99.90
36132;DHT22;22185;48.738;9.324;2023-04-09T03:22:37;7.10;99.90
36132;DHT22;22185;48.738;9.324;2023-04-09T03:24:38;7.10;99.90
36132;DHT22;22185;48.738;9.324;2023-04-09T03:26:40;7.10;99.90
36132;DHT22;22185;48.738;9.324;2023-04-09T03:28:42;7.10;99.90
36132;DHT22;22185;48.738;9.324;2023-04-09T03:30:43;7.20;99.90
36132;DHT22;22185;48.738;9.324;2023-04-09T03:32:45;7.30;99.90
36132;DHT22;22185;48.738;9.324;2023-04-09T03:34:47;7.20;99.90
36132;DHT22;22185;48.738;9.324;2023-04-09T03:36:48;7.20;99.90
36132;DHT22;22185;48.738;9.324;2023-04-09T03:38:50;7.10;99.90
36132;DHT22;22185;48.738;9.324;2023-04-09T03:40:52;7.10;99.90
36132;DHT22;22185;48.738;9.324;2023-04-09T03:42:54;7.10;99.90
36132;DHT22;22185;48.738;9.324;2023-04-09T03:44:55;7.10;99.90
36132;DHT22;22185;48.738;9.324;2023-04-09T03:46:57;7.10;99.90
36132;DHT22;22185;48.738;9.324;2023-04-09T03:48:59;7.20;99.90
36132;DHT22;22185;48.738;9.324;2023-04-09T03:51:01;7.20;99.90
36132;DHT22;22185;48.738;9.324;2023-04-09T03:53:02;7.10;99.90
36132;DHT22;22185;48.738;9.324;2023-04-09T03:55:04;7.10;99.90
36132;DHT22;22185;48.738;9.324;2023-04-09T03:57:06;7.10;99.90
36132;DHT22;22185;48.738;9.324;2023-04-09T03:59:07;7.10;99.90
36132;DHT22;22185;48.738;9.324;2023-04-09T04:01:09;7.10;99.90
36132;DHT22;22185;48.738;9.324;2023-04-09T04:03:11;7.10;99.90
36132;DHT22;22185;48.738;9.324;2023-04-09T04:05:15;7.10;99.90
36132;DHT22;22185;48.738;9.324;2023-04-09T04:07:17;7.00;99.90
36132;DHT22;22185;48.738;9.324;2023-04-09T04:09:18;7.00;99.90
36132;DHT22;22185;48.738;9.324;2023-04-09T04:11:20;7.00;99.90
36132;DHT22;22185;48.738;9.324;2023-04-09T04:13:21;7.00;99.90
36132;DHT22;22185;48.738;9.324;2023-04-09T04:15:23;7.00;99.90
36132;DHT22;22185;48.738;9.324;2023-04-09T04:17:25;7.00;99.90
36132;DHT22;22185;48.738;9.324;2023-04-09T04:19:26;6.90;99.90
36132;DHT22;22185;48.738;9.324;2023-04-09T04:21:28;6.80;99.90
36132;DHT22;22185;48.738;9.324;2023-04-09T04:23:30;6.80;99.90
36132;DHT22;22185;48.738;9.324;2023-04-09T04:25:31;6.70;99.90
36132;DHT22;22185;48.738;9.324;2023-04-09T04:27:33;6.70;99.90
36132;DHT22;22185;48.738;9.324;2023-04-09T04:29:35;6.70;99.90
36132;DHT22;22185;48.738;9.324;2023-04-09T04:31:37;6.70;99.90
36132;DHT22;22185;48.738;9.324;2023-04-09T04:33:40;6.80;99.90
36132;DHT22;22185;48.738;9.324;2023-04-09T04:35:41;6.90;99.90
36132;DHT22;22185;48.738;9.324;2023-04-09T04:37:43;6.80;99.90
36132;DHT22;22185;48.738;9.324;2023-04-09T04:39:45;6.70;99.90
36132;DHT22;22185;48.738;9.324;2023-04-09T04:41:46;6.70;99.90
36132;DHT22;22185;48.738;9.324;2023-04-09T04:43:48;6.70;99.90
36132;DHT22;22185;48.738;9.324;2023-04-09T04:45:50;6.70;99.90
36132;DHT22;22185;48.738;9.324;2023-04-09T04:47:54;6.70;99.90
36132;DHT22;22185;48.738;9.324;2023-04-09T04:49:55;6.80;99.90
36132;DHT22;22185;48.738;9.324;2023-04-09T04:51:57;6.80;99.90
36132;DHT22;22185;48.738;9.324;2023-04-09T04:53:59;6.80;99.90
36132;DHT22;22185;48.738;9.324;2023-04-09T04:56:00;6.80;99.90
36132;DHT22;22185;48.738;9.324;2023-04-09T04:58:02;6.80;99.90
36132;DHT22;22185;48.738;9.324;2023-04-09T05:00:04;6.80;99.90
36132;DHT22;22185;48.738;9.324;2023-04-09T05:02:06;6.80;99.90
36132;DHT22;22185;48.738;9.324;2023-04-09T05:04:08;6.80;99.90
36132;DHT22;22185;48.738;9.324;2023-04-09T05:06:09;6.70;99.90
36132;DHT22;22185;48.738;9.324;2023-04-09T05:08:11;6.70;99.90
36132;DHT22;22185;48.738;9.324;2023-04-09T05:10:12;6.70;99.90
36132;DHT22;22185;48.738;9.324;2023-04-09T05:12:14;6.80;99.90
36132;DHT22;22185;48.738;9.324;2023-04-09T05:14:18;6.90;99.90
36132;DHT22;22185;48.738;9.324;2023-04-09T05:16:21;7.00;99.90
36132;DHT22;22185;48.738;9.324;2023-04-09T05:18:23;6.90;99.90
36132;DHT22;22185;48.738;9.324;2023-04-09T05:20:26;7.00;99.90
36132;DHT22;22185;48.738;9.324;2023-04-09T05:22:27;7.00;99.90
36132;DHT22;22185;48.738;9.324;2023-04-09T05:24:29;7.10;99.90
36132;DHT22;22185;48.738;9.324;2023-04-09T05:26:31;7.10;99.90
36132;DHT22;22185;48.738;9.324;2023-04-09T05:28:32;7.20;99.90
36132;DHT22;22185;48.738;9.324;2023-04-09T05:30:34;7.20;99.90
36132;DHT22;22185;48.738;9.324;2023-04-09T05:32:36;7.20;99.90
36132;DHT22;22185;48.738;9.324;2023-04-09T05:34:37;7.20;99.90
36132;DHT22;22185;48.738;9.324;2023-04-09T05:36:39;7.30;99.90
36132;DHT22;22185;48.738;9.324;2023-04-09T05:38:41;7.30;99.90
36132;DHT22;22185;48.738;9.324;2023-04-09T05:40:43;7.40;99.90
36132;DHT22;22185;48.738;9.324;2023-04-09T05:42:46;7.50;99.90
36132;DHT22;22185;48.738;9.324;2023-04-09T05:44:47;7.50;99.90
36132;DHT22;22185;48.738;9.324;2023-04-09T05:46:49;7.60;99.90
36132;DHT22;22185;48.738;9.324;2023-04-09T05:48:51;7.60;99.90
36132;DHT22;22185;48.738;9.324;2023-04-09T05:50:53;7.60;99.90
36132;DHT22;22185;48.738;9.324;2023-04-09T05:52:56;7.60;99.90
36132;DHT22;22185;48.738;9.324;2023-04-09T05:54:58;7.60;99.90
36132;DHT22;22185;48.738;9.324;2023-04-09T05:56:59;7.50;99.90
36132;DHT22;22185;48.738;9.324;2023-04-09T05:59:01;7.50;99.90
36132;DHT22;22185;48.738;9.324;2023-04-09T06:01:03;7.50;99.90
36132;DHT22;22185;48.738;9.324;2023-04-09T06:03:04;7.50;99.90
36132;DHT22;22185;48.738;9.324;2023-04-09T06:05:06;7.30;99.90
36132;DHT22;22185;48.738;9.324;2023-04-09T06:07:08;7.30;99.90
36132;DHT22;22185;48.738;9.324;2023-04-09T06:09:10;7.20;99.90
36132;DHT22;22185;48.738;9.324;2023-04-09T06:11:11;7.20;99.90
36132;DHT22;22185;48.738;9.324;2023-04-09T06:13:13;7.30;99.90
36132;DHT22;22185;48.738;9.324;2023-04-09T06:15:15;7.30;99.90
36132;DHT22;22185;48.738;9.324;2023-04-09T06:17:17;7.30;99.90
36132;DHT22;22185;48.738;9.324;2023-04-09T06:19:18;7.30;99.90
36132;DHT22;22185;48.738;9.324;2023-04-09T06:21:20;7.30;99.90
36132;DHT22;22185;48.738;9.324;2023-04-09T06:23:22;7.30;99.90
36132;DHT22;22185;48.738;9.324;2023-04-09T06:25:23;7.30;99.90
36132;DHT22;22185;48.738;9.324;2023-04-09T06:27:25;7.30;99.90
36132;DHT22;22185;48.738;9.324;2023-04-09T06:29:27;7.40;99.90
36132;DHT22;22185;48.738;9.324;2023-04-09T06:31:29;7.40;99.90
36132;DHT22;22185;48.738;9.324;2023-04-09T06:33:31;7.50;99.90
36132;DHT22;22185;48.738;9.324;2023-04-09T06:35:33;7.70;99.90
36132;DHT22;22185;48.738;9.324;2023-04-09T06:37:34;7.70;99.90
36132;DHT22;22185;48.738;9.324;2023-04-09T06:39:36;7.80;99.90
36132;DHT22;22185;48.738;9.324;2023-04-09T06:41:42;7.80;99.90
36132;DHT22;22185;48.738;9.324;2023-04-09T06:43:44;7.80;99.90
36132;DHT22;22185;48.738;9.324;2023-04-09T06:45:46;7.90;99.90
36132;DHT22;22185;48.738;9.324;2023-04-09T06:47:48;7.90;99.90
36132;DHT22;22185;48.738;9.324;2023-04-09T06:49:49;7.90;99.90
36132;DHT22;22185;48.738;9.324;2023-04-09T06:51:51;8.00;99.90
36132;DHT22;22185;48.738;9.324;2023-04-09T06:53:56;8.00;99.90
36132;DHT22;22185;48.738;9.324;2023-04-09T06:55:58;8.00;99.90
36132;DHT22;22185;48.738;9.324;2023-04-09T06:57:59;8.10;99.90
36132;DHT22;22185;48.738;9.324;2023-04-09T07:00:03;8.10;99.90
36132;DHT22;22185;48.738;9.324;2023-04-09T07:02:04;8.10;99.90
36132;DHT22;22185;48.738;9.324;2023-04-09T07:04:07;8.20;99.90
36132;DHT22;22185;48.738;9.324;2023-04-09T07:06:09;8.20;99.90
36132;DHT22;22185;48.738;9.324;2023-04-09T07:08:10;8.30;99.90
36132;DHT22;22185;48.738;9.324;2023-04-09T07:10:12;8.30;99.90
36132;DHT22;22185;48.738;9.324;2023-04-09T07:12:17;8.30;99.90
36132;DHT22;22185;48.738;9.324;2023-04-09T07:14:35;8.40;99.90
36132;DHT22;22185;48.738;9.324;2023-04-09T07:16:37;8.30;99.90
36132;DHT22;22185;48.738;9.324;2023-04-09T07:18:39;8.40;99.90
36132;DHT22;22185;48.738;9.324;2023-04-09T07:20:40;8.50;99.90
36132;DHT22;22185;48.738;9.324;2023-04-09T07:22:42;8.50;99.90
36132;DHT22;22185;48.738;9.324;2023-04-09T07:24:43;8.50;99.90
36132;DHT22;22185;48.738;9.324;2023-04-09T07:26:45;8.60;99.90
36132;DHT22;22185;48.738;9.324;2023-04-09T07:28:47;8.70;99.90
36132;DHT22;22185;48.738;9.324;2023-04-09T07:30:49;8.70;99.90
36132;DHT22;22185;48.738;9.324;2023-04-09T07:32:50;8.70;99.90
36132;DHT22;22185;48.738;9.324;2023-04-09T07:34:53;8.80;99.90
36132;DHT22;22185;48.738;9.324;2023-04-09T07:36:54;8.80;99.90
36132;DHT22;22185;48.738;9.324;2023-04-09T07:38:56;8.90;99.90
36132;DHT22;22185;48.738;9.324;2023-04-09T07:40:58;9.00;99.90
36132;DHT22;22185;48.738;9.324;2023-04-09T07:42:59;9.10;99.90
36132;DHT22;22185;48.738;9.324;2023-04-09T07:45:01;9.20;99.90
36132;DHT22;22185;48.738;9.324;2023-04-09T07:47:04;9.20;99.90
36132;DHT22;22185;48.738;9.324;2023-04-09T07:49:07;9.20;99.90
36132;DHT22;22185;48.738;9.324;2023-04-09T07:51:09;9.20;99.90
36132;DHT22;22185;48.738;9.324;2023-04-09T07:53:11;9.10;99.90
36132;DHT22;22185;48.738;9.324;2023-04-09T07:55:13;9.10;99.90
36132;DHT22;22185;48.738;9.324;2023-04-09T07:57:17;9.30;99.90
36132;DHT22;22185;48.738;9.324;2023-04-09T07:59:18;9.30;99.90
36132;DHT22;22185;48.738;9.324;2023-04-09T08:01:20;9.30;99.90
36132;DHT22;22185;48.738;9.324;2023-04-09T08:03:25;9.30;99.90
36132;DHT22;22185;48.738;9.324;2023-04-09T08:05:27;9.40;99.90
36132;DHT22;22185;48.738;9.324;2023-04-09T08:07:29;9.30;99.90
36132;DHT22;22185;48.738;9.324;2023-04-09T08:09:31;9.30;99.90
36132;DHT22;22185;48.738;9.324;2023-04-09T08:11:32;9.40;99.90
36132;DHT22;22185;48.738;9.324;2023-04-09T08:13:34;9.40;99.90
36132;DHT22;22185;48.738;9.324;2023-04-09T08:15:36;9.50;99.90
36132;DHT22;22185;48.738;9.324;2023-04-09T08:17:38;9.50;99.90
36132;DHT22;22185;48.738;9.324;2023-04-09T08:19:40;9.60;99.90
36132;DHT22;22185;48.738;9.324;2023-04-09T08:21:42;9.70;99.90
36132;DHT22;22185;48.738;9.324;2023-04-09T08:23:44;9.80;99.90
36132;DHT22;22185;48.738;9.324;2023-04-09T08:25:46;9.80;99.90
36132;DHT22;22185;48.738;9.324;2023-04-09T08:27:48;9.70;99.90
36132;DHT22;22185;48.738;9.324;2023-04-09T08:29:49;9.80;99.90
36132;DHT22;22185;48.738;9.324;2023-04-09T08:31:51;9.80;99.90
36132;DHT22;22185;48.738;9.324;2023-04-09T08:33:53;9.90;99.90
36132;DHT22;22185;48.738;9.324;2023-04-09T08:35:55;10.00;99.90
36132;DHT22;22185;48.738;9.324;2023-04-09T08:37:57;9.90;99.90
36132;DHT22;22185;48.738;9.324;2023-04-09T08:39:59;10.00;99.90
36132;DHT22;22185;48.738;9.324;2023-04-09T08:42:01;10.00;99.90
36132;DHT22;22185;48.738;9.324;2023-04-09T08:44:03;9.90;99.90
36132;DHT22;22185;48.738;9.324;2023-04-09T08:46:04;9.90;99.90
36132;DHT22;22185;48.738;9.324;2023-04-09T08:48:07;10.00;99.90
36132;DHT22;22185;48.738;9.324;2023-04-09T08:50:09;10.10;99.90
36132;DHT22;22185;48.738;9.324;2023-04-09T08:52:11;10.10;99.90
36132;DHT22;22185;48.738;9.324;2023-04-09T08:54:13;10.20;99.90
36132;DHT22;22185;48.738;9.324;2023-04-09T08:56:16;10.30;99.90
36132;DHT22;22185;48.738;9.324;2023-04-09T08:58:17;10.20;99.90
36132;DHT22;22185;48.738;9.324;2023-04-09T09:00:19;10.10;99.90
36132;DHT22;22185;48.738;9.324;2023-04-09T09:02:21;10.20;99.90
36132;DHT22;22185;48.738;9.324;2023-04-09T09:04:24;10.40;99.90
36132;DHT22;22185;48.738;9.324;2023-04-09T09:06:27;10.50;99.90
36132;DHT22;22185;48.738;9.324;2023-04-09T09:08:30;10.60;99.90
36132;DHT22;22185;48.738;9.324;2023-04-09T09:10:38;10.50;99.90
36132;DHT22;22185;48.738;9.324;2023-04-09T09:12:41;10.40;99.90
36132;DHT22;22185;48.738;9.324;2023-04-09T09:14:43;10.40;99.90
36132;DHT22;22185;48.738;9.324;2023-04-09T09:18:55;10.60;99.90
36132;DHT22;22185;48.738;9.324;2023-04-09T09:21:14;10.70;99.90
36132;DHT22;22185;48.738;9.324;2023-04-09T09:23:16;10.70;99.90
36132;DHT22;22185;48.738;9.324;2023-04-09T09:25:37;10.90;99.90
36132;DHT22;22185;48.738;9.324;2023-04-09T09:27:39;11.00;99.90
36132;DHT22;22185;48.738;9.324;2023-04-09T09:29:41;11.20;99.90
36132;DHT22;22185;48.738;9.324;2023-04-09T09:31:45;11.40;99.90
36132;DHT22;22185;48.738;9.324;2023-04-09T09:33:49;11.50;99.90
36132;DHT22;22185;48.738;9.324;2023-04-09T09:35:52;11.40;99.90
36132;DHT22;22185;48.738;9.324;2023-04-09T09:38:03;11.20;99.90
36132;DHT22;22185;48.738;9.324;2023-04-09T09:40:05;11.20;99.90
36132;DHT22;22185;48.738;9.324;2023-04-09T09:42:08;11.60;99.90
36132;DHT22;22185;48.738;9.324;2023-04-09T09:44:10;11.50;99.90
36132;DHT22;22185;48.738;9.324;2023-04-09T09:46:12;11.60;99.90
36132;DHT22;22185;48.738;9.324;2023-04-09T09:48:15;11.60;99.90
36132;DHT22;22185;48.738;9.324;2023-04-09T09:50:16;11.70;99.90
36132;DHT22;22185;48.738;9.324;2023-04-09T09:52:24;12.00;99.90
36132;DHT22;22185;48.738;9.324;2023-04-09T09:54:27;12.20;99.90
36132;DHT22;22185;48.738;9.324;2023-04-09T09:56:35;12.20;99.90
36132;DHT22;22185;48.738;9.324;2023-04-09T09:58:43;12.10;99.90
36132;DHT22;22185;48.738;9.324;2023-04-09T10:00:45;12.10;99.90
36132;DHT22;22185;48.738;9.324;2023-04-09T10:02:52;12.40;99.90
36132;DHT22;22185;48.738;9.324;2023-04-09T10:04:59;12.30;99.90
36132;DHT22;22185;48.738;9.324;2023-04-09T10:07:01;12.40;99.90
36132;DHT22;22185;48.738;9.324;2023-04-09T10:09:04;12.70;99.90
36132;DHT22;22185;48.738;9.324;2023-04-09T10:11:07;12.90;99.90
36132;DHT22;22185;48.738;9.324;2023-04-09T10:15:30;13.30;99.90
36132;DHT22;22185;48.738;9.324;2023-04-09T10:17:32;13.40;99.90
36132;DHT22;22185;48.738;9.324;2023-04-09T10:19:36;13.50;99.90
36132;DHT22;22185;48.738;9.324;2023-04-09T10:23:47;13.60;99.90
36132;DHT22;22185;48.738;9.324;2023-04-09T10:25:49;13.40;99.90
36132;DHT22;22185;48.738;9.324;2023-04-09T10:27:58;13.40;99.90
36132;DHT22;22185;48.738;9.324;2023-04-09T10:30:00;13.70;99.90
36132;DHT22;22185;48.738;9.324;2023-04-09T10:32:05;13.60;99.90
36132;DHT22;22185;48.738;9.324;2023-04-09T10:34:07;13.20;99.90
36132;DHT22;22185;48.738;9.324;2023-04-09T10:36:11;13.20;99.90
36132;DHT22;22185;48.738;9.324;2023-04-09T10:38:13;13.50;99.90
36132;DHT22;22185;48.738;9.324;2023-04-09T10:40:18;13.60;99.90
36132;DHT22;22185;48.738;9.324;2023-04-09T10:42:23;13.40;99.90
36132;DHT22;22185;48.738;9.324;2023-04-09T10:44:27;13.70;99.90
36132;DHT22;22185;48.738;9.324;2023-04-09T10:46:34;14.30;99.90
36132;DHT22;22185;48.738;9.324;2023-04-09T10:48:37;14.30;99.90
36132;DHT22;22185;48.738;9.324;2023-04-09T10:50:41;14.20;99.90
36132;DHT22;22185;48.738;9.324;2023-04-09T10:52:43;14.50;99.90
36132;DHT22;22185;48.738;9.324;2023-04-09T10:54:45;14.00;99.90
36132;DHT22;22185;48.738;9.324;2023-04-09T10:59:07;14.20;99.90
36132;DHT22;22185;48.738;9.324;2023-04-09T11:01:09;14.70;99.90
36132;DHT22;22185;48.738;9.324;2023-04-09T11:07:34;15.00;99.90
36132;DHT22;22185;48.738;9.324;2023-04-09T11:09:37;16.70;99.90
36132;DHT22;22185;48.738;9.324;2023-04-09T11:11:38;16.50;99.90
36132;DHT22;22185;48.738;9.324;2023-04-09T11:13:41;15.70;99.90
36132;DHT22;22185;48.738;9.324;2023-04-09T11:15:43;14.80;99.90
36132;DHT22;22185;48.738;9.324;2023-04-09T11:17:46;14.40;99.90
36132;DHT22;22185;48.738;9.324;2023-04-09T11:19:48;15.70;99.90
36132;DHT22;22185;48.738;9.324;2023-04-09T11:21:50;17.60;99.90
36132;DHT22;22185;48.738;9.324;2023-04-09T11:23:52;18.60;99.90
36132;DHT22;22185;48.738;9.324;2023-04-09T11:25:53;18.80;99.90
36132;DHT22;22185;48.738;9.324;2023-04-09T11:27:56;16.90;99.90
36132;DHT22;22185;48.738;9.324;2023-04-09T11:29:58;17.10;99.90
36132;DHT22;22185;48.738;9.324;2023-04-09T11:31:59;17.80;99.90
36132;DHT22;22185;48.738;9.324;2023-04-09T11:34:02;18.70;97.90
36132;DHT22;22185;48.738;9.324;2023-04-09T11:36:04;20.30;97.30
36132;DHT22;22185;48.738;9.324;2023-04-09T11:38:07;20.60;93.50
36132;DHT22;22185;48.738;9.324;2023-04-09T11:40:22;20.20;91.90
36132;DHT22;22185;48.738;9.324;2023-04-09T11:42:24;20.60;91.10
36132;DHT22;22185;48.738;9.324;2023-04-09T11:44:28;21.10;91.30
36132;DHT22;22185;48.738;9.324;2023-04-09T11:46:31;21.60;90.20
36132;DHT22;22185;48.738;9.324;2023-04-09T11:48:33;22.30;86.90
36132;DHT22;22185;48.738;9.324;2023-04-09T11:50:36;21.30;84.40
36132;DHT22;22185;48.738;9.324;2023-04-09T11:52:38;21.00;86.60
36132;DHT22;22185;48.738;9.324;2023-04-09T11:54:40;21.30;83.10
36132;DHT22;22185;48.738;9.324;2023-04-09T11:56:42;22.20;81.80
36132;DHT22;22185;48.738;9.324;2023-04-09T11:58:44;22.40;80.50
36132;DHT22;22185;48.738;9.324;2023-04-09T12:00:47;22.50;81.40
36132;DHT22;22185;48.738;9.324;2023-04-09T12:02:57;22.40;79.30
36132;DHT22;22185;48.738;9.324;2023-04-09T12:05:02;22.30;77.20
36132;DHT22;22185;48.738;9.324;2023-04-09T12:07:06;22.00;74.00
36132;DHT22;22185;48.738;9.324;2023-04-09T12:09:09;21.70;77.90
36132;DHT22;22185;48.738;9.324;2023-04-09T12:11:14;22.00;79.10
36132;DHT22;22185;48.738;9.324;2023-04-09T12:13:16;19.10;80.60
36132;DHT22;22185;48.738;9.324;2023-04-09T12:17:22;19.90;82.00
36132;DHT22;22185;48.738;9.324;2023-04-09T12:19:24;22.20;78.60
36132;DHT22;22185;48.738;9.324;2023-04-09T12:21:43;21.80;80.70
36132;DHT22;22185;48.738;9.324;2023-04-09T12:23:45;23.10;75.50
36132;DHT22;22185;48.738;9.324;2023-04-09T12:25:46;22.30;77.50
36132;DHT22;22185;48.738;9.324;2023-04-09T12:27:48;22.70;77.30
36132;DHT22;22185;48.738;9.324;2023-04-09T12:29:50;23.10;72.80
36132;DHT22;22185;48.738;9.324;2023-04-09T12:31:52;24.00;75.40
36132;DHT22;22185;48.738;9.324;2023-04-09T12:33:54;25.20;68.90
36132;DHT22;22185;48.738;9.324;2023-04-09T12:35:56;23.70;64.70
36132;DHT22;22185;48.738;9.324;2023-04-09T12:37:59;22.60;66.20
36132;DHT22;22185;48.738;9.324;2023-04-09T12:40:01;23.30;73.60
36132;DHT22;22185;48.738;9.324;2023-04-09T12:42:02;24.70;73.60
36132;DHT22;22185;48.738;9.324;2023-04-09T12:44:04;23.50;66.10
36132;DHT22;22185;48.738;9.324;2023-04-09T12:46:08;23.10;64.80
36132;DHT22;22185;48.738;9.324;2023-04-09T12:48:09;23.30;69.30
36132;DHT22;22185;48.738;9.324;2023-04-09T12:50:12;23.80;69.70
36132;DHT22;22185;48.738;9.324;2023-04-09T12:52:15;24.00;70.60
36132;DHT22;22185;48.738;9.324;2023-04-09T12:54:18;24.50;72.40
36132;DHT22;22185;48.738;9.324;2023-04-09T12:56:20;25.00;74.20
36132;DHT22;22185;48.738;9.324;2023-04-09T12:58:22;24.90;69.00
36132;DHT22;22185;48.738;9.324;2023-04-09T13:00:24;25.40;65.00
36132;DHT22;22185;48.738;9.324;2023-04-09T13:02:31;25.60;65.10
36132;DHT22;22185;48.738;9.324;2023-04-09T13:04:33;25.40;65.40
36132;DHT22;22185;48.738;9.324;2023-04-09T13:06:38;25.20;62.90
36132;DHT22;22185;48.738;9.324;2023-04-09T13:08:40;24.90;66.20
36132;DHT22;22185;48.738;9.324;2023-04-09T13:10:42;25.90;61.40
36132;DHT22;22185;48.738;9.324;2023-04-09T13:12:44;26.10;69.50
36132;DHT22;22185;48.738;9.324;2023-04-09T13:14:46;26.20;61.80
36132;DHT22;22185;48.738;9.324;2023-04-09T13:16:48;25.60;62.90
36132;DHT22;22185;48.738;9.324;2023-04-09T13:18:50;25.50;60.30
36132;DHT22;22185;48.738;9.324;2023-04-09T13:20:53;25.90;62.40
36132;DHT22;22185;48.738;9.324;2023-04-09T13:22:55;24.90;59.50
36132;DHT22;22185;48.738;9.324;2023-04-09T13:24:56;25.50;60.60
36132;DHT22;22185;48.738;9.324;2023-04-09T13:26:58;26.70;62.10